Time;durP1;ratioP1;P1;durP2;ratioP2;P2;SDS_P1;SDS_P2;PMS_P1;PMS_P2;Temp;Humidity;BMP_temperature;BMP_pressure;BME280_temperature;BME280_humidity;BME280_pressure;Samples;Min_cycle;Max_cycle;Signal;HPM_P1;HPM_P2
2022/01/05 00:01:59;;;;;;;2.03;1.92;;;5.20;99.90;;;;;;5029965;28;20215;-78
2022/01/05 00:04:26;;;;;;;1.70;1.60;;;5.20;99.90;;;;;;5030707;28;20200;-78
2022/01/05 00:06:53;;;;;;;2.25;1.90;;;5.20;99.90;;;;;;5031218;28;20248;-78
2022/01/05 00:09:22;;;;;;;1.50;1.40;;;5.20;99.90;;;;;;5022648;28;20208;-78
2022/01/05 00:11:49;;;;;;;1.45;1.35;;;5.20;99.90;;;;;;5027788;28;20739;-78
2022/01/05 00:14:16;;;;;;;1.70;1.42;;;5.30;99.90;;;;;;5023191;28;20197;-78
2022/01/05 00:16:43;;;;;;;1.63;1.52;;;5.30;99.90;;;;;;5022514;28;20232;-77
2022/01/05 00:19:10;;;;;;;1.60;1.50;;;5.20;99.90;;;;;;5020922;28;20546;-78
2022/01/05 00:21:38;;;;;;;1.50;1.35;;;5.30;99.90;;;;;;5030113;28;20649;-78
2022/01/05 00:24:05;;;;;;;1.60;1.50;;;5.30;99.90;;;;;;5004407;28;20205;-78
2022/01/05 00:26:34;;;;;;;1.52;1.20;;;5.20;99.90;;;;;;5034265;28;20253;-78
2022/01/05 00:29:01;;;;;;;1.55;1.45;;;5.20;99.90;;;;;;5035267;28;20232;-78
2022/01/05 00:31:28;;;;;;;1.52;1.42;;;5.20;99.90;;;;;;5030253;28;20537;-78
2022/01/05 00:33:56;;;;;;;1.20;1.10;;;5.20;99.90;;;;;;5035252;28;20197;-79
2022/01/05 00:36:22;;;;;;;1.10;0.93;;;5.20;99.90;;;;;;5035374;28;20221;-79
2022/01/05 00:38:50;;;;;;;1.00;0.90;;;5.20;99.90;;;;;;5026652;28;20236;-78
2022/01/05 00:41:17;;;;;;;0.82;0.82;;;5.20;99.90;;;;;;5025221;28;20208;-78
2022/01/05 00:43:45;;;;;;;0.90;0.90;;;5.20;99.90;;;;;;5034877;28;20197;-78
2022/01/05 00:46:12;;;;;;;0.82;0.80;;;5.20;99.90;;;;;;5034780;28;20221;-78
2022/01/05 00:48:39;;;;;;;1.08;0.77;;;5.20;99.90;;;;;;5026328;28;20718;-78
2022/01/05 00:51:08;;;;;;;0.90;0.80;;;5.20;99.90;;;;;;5034568;28;20202;-78
2022/01/05 00:53:36;;;;;;;1.33;0.70;;;5.20;99.90;;;;;;5031068;28;20196;-78
2022/01/05 00:56:05;;;;;;;1.27;0.80;;;5.20;99.90;;;;;;5034436;28;20231;-78
2022/01/05 00:58:32;;;;;;;1.20;0.70;;;5.20;99.90;;;;;;5034187;28;20624;-78
2022/01/05 01:01:01;;;;;;;1.00;0.75;;;5.20;99.90;;;;;;5033090;28;20630;-78
2022/01/05 01:03:28;;;;;;;0.70;0.70;;;5.20;99.90;;;;;;5027835;28;20717;-78
2022/01/05 01:05:55;;;;;;;0.70;0.70;;;5.20;99.90;;;;;;5030458;28;20225;-78
2022/01/05 01:08:22;;;;;;;0.70;0.70;;;5.20;99.90;;;;;;5031220;28;20204;-77
2022/01/05 01:10:50;;;;;;;0.90;0.70;;;5.20;99.90;;;;;;5033475;28;20233;-78
2022/01/05 01:13:18;;;;;;;0.70;0.60;;;5.20;99.90;;;;;;5033114;28;20221;-78
2022/01/05 01:15:45;;;;;;;0.70;0.60;;;5.20;99.90;;;;;;5033256;28;20576;-78
2022/01/05 01:18:14;;;;;;;0.90;0.60;;;5.10;99.90;;;;;;5032548;28;20221;-79
2022/01/05 01:20:41;;;;;;;0.60;0.60;;;5.10;99.90;;;;;;5029299;28;20284;-78
2022/01/05 01:23:09;;;;;;;0.70;0.60;;;5.20;99.90;;;;;;5020861;28;20194;-78
2022/01/05 01:25:36;;;;;;;0.70;0.50;;;5.20;99.90;;;;;;5024174;28;20657;-78
2022/01/05 01:28:03;;;;;;;0.80;0.68;;;5.20;99.90;;;;;;5031920;28;20225;-78
2022/01/05 01:30:32;;;;;;;0.73;0.60;;;5.20;99.90;;;;;;5030748;28;20251;-78
2022/01/05 01:32:59;;;;;;;0.80;0.70;;;5.20;99.90;;;;;;5024215;28;20607;-78
2022/01/05 01:35:27;;;;;;;0.57;0.50;;;5.20;99.90;;;;;;5032161;28;20194;-78
2022/01/05 01:37:55;;;;;;;0.60;0.60;;;5.20;99.90;;;;;;5019698;28;20222;-79
2022/01/05 01:40:22;;;;;;;1.35;0.70;;;5.30;99.90;;;;;;5018060;28;20745;-78
2022/01/05 01:42:49;;;;;;;0.65;0.60;;;5.20;99.90;;;;;;5029809;28;20584;-78
2022/01/05 01:45:16;;;;;;;0.70;0.60;;;5.20;99.90;;;;;;5019107;28;20195;-78
2022/01/05 01:47:43;;;;;;;1.60;0.90;;;5.30;99.90;;;;;;5028039;28;20280;-78
2022/01/05 01:50:11;;;;;;;0.60;0.50;;;5.30;99.90;;;;;;5028598;28;20197;-78
2022/01/05 01:52:39;;;;;;;0.70;0.65;;;5.30;99.90;;;;;;5027645;28;20563;-78
2022/01/05 01:55:08;;;;;;;0.60;0.60;;;5.30;99.90;;;;;;5034779;28;20197;-79
2022/01/05 01:57:37;;;;;;;0.60;0.50;;;5.30;99.90;;;;;;5029931;28;20285;-77
2022/01/05 02:00:09;;;;;;;0.70;0.55;;;5.30;99.90;;;;;;5030868;28;20190;-78
2022/01/05 02:02:37;;;;;;;1.53;0.50;;;5.30;99.90;;;;;;4996360;28;1092498;-78
2022/01/05 02:05:05;;;;;;;0.60;0.57;;;5.30;99.90;;;;;;5045006;28;20210;-77
2022/01/05 02:07:32;;;;;;;0.70;0.60;;;5.30;99.90;;;;;;5056741;28;20221;-77
2022/01/05 02:10:01;;;;;;;0.60;0.60;;;5.30;99.90;;;;;;5056844;28;20197;-77
2022/01/05 02:12:29;;;;;;;1.10;0.65;;;5.30;99.90;;;;;;5044104;28;20240;-77
2022/01/05 02:14:57;;;;;;;0.60;0.60;;;5.30;99.90;;;;;;5035979;28;20652;-78
2022/01/05 02:17:31;;;;;;;0.70;0.60;;;5.20;99.90;;;;;;5038656;28;20269;-76
2022/01/05 02:19:58;;;;;;;0.70;0.60;;;5.20;99.90;;;;;;5054208;28;20190;-79
2022/01/05 02:22:26;;;;;;;0.70;0.60;;;5.20;99.90;;;;;;5055053;28;20182;-78
2022/01/05 02:24:53;;;;;;;0.60;0.60;;;5.20;99.90;;;;;;5047570;28;20244;-77
2022/01/05 02:27:20;;;;;;;0.50;0.40;;;5.20;99.90;;;;;;5031177;28;20246;-77
2022/01/05 02:29:47;;;;;;;0.70;0.63;;;5.20;99.90;;;;;;5031008;28;20247;-78
2022/01/05 02:32:14;;;;;;;0.63;0.60;;;5.30;99.90;;;;;;5028595;28;20661;-78
2022/01/05 02:34:41;;;;;;;0.80;0.60;;;5.30;99.90;;;;;;5025195;28;20201;-77
2022/01/05 02:37:08;;;;;;;0.70;0.60;;;5.40;99.90;;;;;;5031348;28;20236;-77
2022/01/05 02:39:36;;;;;;;0.60;0.57;;;5.60;99.90;;;;;;5033419;28;20201;-77
2022/01/05 02:42:04;;;;;;;0.70;0.60;;;5.50;99.90;;;;;;5029485;28;20217;-77
2022/01/05 02:44:31;;;;;;;0.60;0.60;;;5.50;99.90;;;;;;5026852;28;20213;-77
2022/01/05 02:46:58;;;;;;;0.60;0.60;;;5.50;99.90;;;;;;5031632;28;20241;-77
2022/01/05 02:49:25;;;;;;;0.95;0.60;;;5.60;99.90;;;;;;5032135;28;20198;-77
2022/01/05 02:51:52;;;;;;;1.10;0.65;;;5.60;99.90;;;;;;5032654;28;20911;-78
2022/01/05 02:54:19;;;;;;;0.70;0.60;;;5.60;99.90;;;;;;5026728;28;20193;-78
2022/01/05 02:56:47;;;;;;;0.70;0.60;;;5.70;99.90;;;;;;5021376;28;20257;-76
2022/01/05 02:59:15;;;;;;;1.30;0.50;;;5.60;99.90;;;;;;5015819;28;20196;-77
2022/01/05 03:01:41;;;;;;;0.70;0.55;;;5.60;99.90;;;;;;5032208;28;20564;-77
2022/01/05 03:04:08;;;;;;;0.60;0.50;;;5.70;99.90;;;;;;5025209;28;20251;-77
2022/01/05 03:06:35;;;;;;;0.60;0.50;;;5.70;99.90;;;;;;5031897;28;20248;-77
2022/01/05 03:09:02;;;;;;;0.60;0.60;;;5.70;99.90;;;;;;5029003;28;20631;-77
2022/01/05 03:11:30;;;;;;;1.27;0.63;;;5.70;99.90;;;;;;5023314;28;20222;-77
2022/01/05 03:13:58;;;;;;;1.20;0.55;;;5.70;99.90;;;;;;5015082;28;20198;-78
2022/01/05 03:16:25;;;;;;;0.60;0.60;;;5.60;99.90;;;;;;5032139;28;20213;-77
2022/01/05 03:18:52;;;;;;;0.63;0.50;;;5.60;99.90;;;;;;5031825;28;20200;-78
2022/01/05 03:21:19;;;;;;;0.80;0.60;;;5.70;99.90;;;;;;5031522;28;20285;-77
2022/01/05 03:23:46;;;;;;;0.70;0.70;;;5.70;99.90;;;;;;5022532;28;20197;-78
2022/01/05 03:26:14;;;;;;;0.60;0.50;;;5.70;99.90;;;;;;5030241;28;20279;-78
2022/01/05 03:28:41;;;;;;;0.70;0.60;;;5.60;99.90;;;;;;5031355;28;20198;-78
2022/01/05 03:31:09;;;;;;;0.77;0.70;;;5.70;99.90;;;;;;5029315;28;20601;-78
2022/01/05 03:33:36;;;;;;;0.70;0.60;;;5.70;99.90;;;;;;5015850;28;20202;-77
2022/01/05 03:36:04;;;;;;;0.80;0.80;;;5.70;99.90;;;;;;5032195;28;20219;-77
2022/01/05 03:38:31;;;;;;;0.80;0.70;;;5.70;99.90;;;;;;5031643;28;20340;-77
2022/01/05 03:40:58;;;;;;;0.80;0.70;;;5.70;99.90;;;;;;5031431;28;20711;-78
2022/01/05 03:43:25;;;;;;;0.77;0.75;;;5.70;99.90;;;;;;5031036;28;20194;-78
2022/01/05 03:45:53;;;;;;;0.80;0.70;;;5.60;99.90;;;;;;5025576;28;20264;-78
2022/01/05 03:48:22;;;;;;;0.85;0.77;;;5.60;99.90;;;;;;5025420;28;20189;-78
2022/01/05 03:50:49;;;;;;;1.02;0.80;;;5.60;99.90;;;;;;5028894;28;20231;-78
2022/01/05 03:53:16;;;;;;;1.10;1.00;;;5.60;99.90;;;;;;5030462;28;20189;-78
2022/01/05 03:55:45;;;;;;;0.98;0.88;;;5.50;99.90;;;;;;5020808;28;20222;-78
2022/01/05 03:58:12;;;;;;;0.80;0.80;;;5.40;99.90;;;;;;5025685;28;20686;-78
2022/01/05 04:00:41;;;;;;;1.02;0.70;;;5.30;99.90;;;;;;5027500;28;20284;-78
2022/01/05 04:03:09;;;;;;;1.35;0.90;;;5.20;99.90;;;;;;5031245;28;20202;-78
2022/01/05 04:05:37;;;;;;;0.80;0.70;;;5.20;99.90;;;;;;5029791;28;20611;-78
2022/01/05 04:08:04;;;;;;;0.77;0.75;;;5.20;99.90;;;;;;5031027;28;20197;-79
2022/01/05 04:10:31;;;;;;;2.28;0.82;;;5.20;99.90;;;;;;5017036;28;20294;-78
2022/01/05 04:12:59;;;;;;;1.17;0.68;;;5.20;99.90;;;;;;5037960;28;20611;-79
2022/01/05 04:15:26;;;;;;;0.88;0.70;;;5.20;99.90;;;;;;5029478;28;20716;-79
2022/01/05 04:17:53;;;;;;;0.80;0.80;;;5.30;99.90;;;;;;5031419;28;20337;-78
2022/01/05 04:20:21;;;;;;;0.80;0.80;;;5.30;99.90;;;;;;5028674;28;20208;-79
2022/01/05 04:22:49;;;;;;;0.80;0.80;;;5.30;99.90;;;;;;5029085;28;20197;-78
2022/01/05 04:25:16;;;;;;;1.00;0.60;;;5.20;99.90;;;;;;5019642;28;20214;-78
2022/01/05 04:27:43;;;;;;;1.02;0.70;;;5.20;99.90;;;;;;5027049;28;20198;-78
2022/01/05 04:30:12;;;;;;;0.70;0.70;;;5.20;99.90;;;;;;5020440;28;20229;-79
2022/01/05 04:32:40;;;;;;;0.70;0.70;;;5.20;99.90;;;;;;5014851;28;20576;-79
2022/01/05 04:35:11;;;;;;;0.98;0.70;;;5.10;99.90;;;;;;5021582;28;20208;-79
2022/01/05 04:37:38;;;;;;;0.65;0.60;;;5.10;99.90;;;;;;5019844;28;20226;-78
2022/01/05 04:40:08;;;;;;;0.60;0.60;;;5.10;99.90;;;;;;5027303;28;20296;-79
2022/01/05 04:42:35;;;;;;;0.70;0.60;;;5.10;99.90;;;;;;5027970;28;20197;-78
2022/01/05 04:45:02;;;;;;;0.90;0.60;;;5.10;99.90;;;;;;5031409;28;20303;-78
2022/01/05 04:47:29;;;;;;;0.60;0.55;;;5.00;99.90;;;;;;5025797;28;20213;-78
2022/01/05 04:49:56;;;;;;;0.80;0.60;;;5.00;99.90;;;;;;5026608;28;20206;-79
2022/01/05 04:52:23;;;;;;;1.98;0.80;;;5.00;99.90;;;;;;4999326;28;20649;-78
2022/01/05 04:54:50;;;;;;;0.60;0.60;;;5.00;99.90;;;;;;5023290;28;20290;-79
2022/01/05 04:57:18;;;;;;;0.93;0.70;;;5.00;99.90;;;;;;5026235;28;20747;-78
2022/01/05 04:59:46;;;;;;;1.05;0.95;;;5.10;99.90;;;;;;5019975;28;20190;-78
2022/01/05 05:02:14;;;;;;;1.25;1.15;;;5.20;99.90;;;;;;5028670;28;20241;-78
2022/01/05 05:04:41;;;;;;;1.27;1.15;;;5.20;99.90;;;;;;5027650;28;20289;-78
2022/01/05 05:07:08;;;;;;;1.20;1.10;;;5.20;99.90;;;;;;5027589;28;20221;-77
2022/01/05 05:09:35;;;;;;;2.53;1.10;;;5.30;99.90;;;;;;5030906;28;20667;-79
2022/01/05 05:12:02;;;;;;;1.70;1.10;;;5.30;99.90;;;;;;5033721;28;20208;-78
2022/01/05 05:14:30;;;;;;;1.20;1.10;;;5.20;99.90;;;;;;5034166;28;20296;-79
2022/01/05 05:16:57;;;;;;;2.58;1.25;;;4.80;99.90;;;;;;5034558;28;20221;-79
2022/01/05 05:19:24;;;;;;;1.35;1.25;;;4.60;99.90;;;;;;5028949;28;20281;-77
2022/01/05 05:21:51;;;;;;;2.00;1.65;;;4.30;99.90;;;;;;5020516;28;20197;-78
2022/01/05 05:24:18;;;;;;;1.55;1.45;;;3.90;99.90;;;;;;5034276;28;20283;-79
2022/01/05 05:26:45;;;;;;;2.10;1.92;;;3.60;99.90;;;;;;5033973;28;20225;-77
2022/01/05 05:29:12;;;;;;;1.80;1.70;;;3.50;99.90;;;;;;5025897;28;20199;-78
2022/01/05 05:31:40;;;;;;;1.73;1.63;;;3.20;99.90;;;;;;5014851;28;20237;-77
2022/01/05 05:34:07;;;;;;;2.22;2.03;;;3.00;99.90;;;;;;5016254;28;20221;-77
2022/01/05 05:36:34;;;;;;;2.17;2.08;;;2.90;99.90;;;;;;5027087;28;20579;-78
2022/01/05 05:39:01;;;;;;;2.50;2.30;;;2.80;99.90;;;;;;5016651;28;20226;-77
2022/01/05 05:41:28;;;;;;;3.08;2.88;;;2.60;99.90;;;;;;5034163;28;20220;-77
2022/01/05 05:43:55;;;;;;;3.35;2.90;;;2.60;99.90;;;;;;5033686;28;20202;-77
2022/01/05 05:46:22;;;;;;;3.42;3.13;;;2.60;99.90;;;;;;5028505;28;20245;-77
2022/01/05 05:48:50;;;;;;;3.15;2.85;;;2.60;99.90;;;;;;5024897;28;20562;-77
2022/01/05 05:51:17;;;;;;;3.10;2.80;;;2.60;99.90;;;;;;5031663;28;20648;-77
2022/01/05 05:53:44;;;;;;;3.08;2.78;;;2.70;99.90;;;;;;5019603;28;20192;-77
2022/01/05 05:56:11;;;;;;;3.70;3.40;;;2.70;99.90;;;;;;5030848;28;20213;-77
2022/01/05 05:58:38;;;;;;;3.05;2.80;;;2.80;99.90;;;;;;5014610;28;20314;-77
2022/01/05 06:01:05;;;;;;;3.70;3.30;;;2.80;99.90;;;;;;5032927;28;20218;-77
2022/01/05 06:03:32;;;;;;;4.00;3.60;;;2.80;99.90;;;;;;5033845;28;20194;-78
2022/01/05 06:06:00;;;;;;;3.42;2.70;;;2.90;99.90;;;;;;5019822;28;20778;-78
2022/01/05 06:08:28;;;;;;;3.38;3.10;;;2.80;99.90;;;;;;5032717;28;20195;-78
2022/01/05 06:10:54;;;;;;;4.03;3.63;;;2.90;99.90;;;;;;5033886;28;20202;-77
2022/01/05 06:13:22;;;;;;;3.63;3.33;;;2.90;99.90;;;;;;5033390;28;20209;-77
2022/01/05 06:15:49;;;;;;;4.95;4.50;;;2.90;99.90;;;;;;5033516;28;20309;-78
2022/01/05 06:18:16;;;;;;;3.75;3.45;;;3.00;99.90;;;;;;5025485;28;20758;-78
2022/01/05 06:20:43;;;;;;;4.00;3.60;;;3.10;99.90;;;;;;5013616;28;20235;-78
2022/01/05 06:23:11;;;;;;;4.65;4.15;;;3.10;99.90;;;;;;5023860;28;20203;-77
2022/01/05 06:25:38;;;;;;;3.90;3.60;;;3.10;99.90;;;;;;5031854;28;20287;-77
2022/01/05 06:28:08;;;;;;;4.30;3.95;;;3.20;99.90;;;;;;5031378;28;20201;-77
2022/01/05 06:30:35;;;;;;;3.40;3.10;;;3.20;99.90;;;;;;5032761;28;20197;-78
2022/01/05 06:33:02;;;;;;;3.70;3.33;;;3.20;99.90;;;;;;5021342;28;20196;-78
2022/01/05 06:35:29;;;;;;;3.17;2.88;;;3.20;99.90;;;;;;5026603;28;20210;-78
2022/01/05 06:37:56;;;;;;;3.47;3.17;;;3.20;99.90;;;;;;5019429;28;20694;-77
2022/01/05 06:40:25;;;;;;;3.67;3.38;;;3.20;99.90;;;;;;5021200;28;20243;-79
2022/01/05 06:42:52;;;;;;;2.90;2.60;;;3.30;99.90;;;;;;5020130;28;20277;-75
2022/01/05 06:45:19;;;;;;;4.45;2.40;;;3.30;99.90;;;;;;5016667;28;20318;-80
2022/01/05 06:47:47;;;;;;;2.92;2.28;;;3.20;99.90;;;;;;5022569;28;20200;-78
2022/01/05 06:50:17;;;;;;;2.72;2.42;;;3.20;99.90;;;;;;5021135;28;21677;-79
2022/01/05 06:52:44;;;;;;;3.13;2.38;;;3.20;99.90;;;;;;5020874;28;20252;-79
2022/01/05 06:55:12;;;;;;;3.45;2.00;;;3.20;99.90;;;;;;5021172;28;20310;-78
2022/01/05 06:57:41;;;;;;;5.00;2.80;;;3.10;99.90;;;;;;5021852;28;20210;-80
2022/01/05 07:00:10;;;;;;;3.17;2.58;;;3.10;99.90;;;;;;5024565;28;20274;-80
2022/01/05 07:02:37;;;;;;;4.57;2.88;;;3.10;99.90;;;;;;5023057;28;20217;-79
2022/01/05 07:05:05;;;;;;;2.17;1.90;;;3.00;99.90;;;;;;5019286;28;20777;-80
2022/01/05 07:07:32;;;;;;;2.75;2.42;;;3.00;99.90;;;;;;5022843;28;20203;-80
2022/01/05 07:09:59;;;;;;;2.30;2.10;;;2.90;99.90;;;;;;5019540;28;20282;-79
2022/01/05 07:12:26;;;;;;;2.25;2.05;;;2.80;99.90;;;;;;5022361;28;20719;-80
2022/01/05 07:14:54;;;;;;;2.85;2.30;;;2.80;99.90;;;;;;5025981;28;20224;-79
2022/01/05 07:17:21;;;;;;;2.55;2.35;;;2.70;99.90;;;;;;5021221;28;20193;-79
2022/01/05 07:19:48;;;;;;;2.83;2.40;;;2.70;99.90;;;;;;5020041;28;20225;-81
2022/01/05 07:22:15;;;;;;;2.10;1.90;;;2.60;99.90;;;;;;5021289;28;20288;-82
2022/01/05 07:24:42;;;;;;;2.97;2.53;;;2.60;99.90;;;;;;5020224;28;20219;-81
2022/01/05 07:27:09;;;;;;;2.88;2.33;;;2.70;99.90;;;;;;5023837;28;20764;-80
2022/01/05 07:29:36;;;;;;;2.25;2.10;;;2.60;99.90;;;;;;5019360;28;20194;-79
2022/01/05 07:32:05;;;;;;;2.78;2.40;;;2.60;99.90;;;;;;5022529;28;20758;-78
2022/01/05 07:34:32;;;;;;;2.50;2.30;;;2.50;99.90;;;;;;5020959;28;20310;-78
2022/01/05 07:36:59;;;;;;;2.60;2.40;;;2.50;99.90;;;;;;5025861;28;20697;-76
2022/01/05 07:39:26;;;;;;;3.00;2.53;;;2.50;99.90;;;;;;5020636;28;20237;-77
2022/01/05 07:41:55;;;;;;;3.88;3.20;;;2.50;99.90;;;;;;5019639;28;20203;-78
2022/01/05 07:44:22;;;;;;;2.38;2.15;;;2.50;99.90;;;;;;5020623;28;20229;-77
2022/01/05 07:46:49;;;;;;;4.28;2.47;;;2.40;99.90;;;;;;5021828;28;20703;-77
2022/01/05 07:49:17;;;;;;;4.93;2.17;;;2.40;99.90;;;;;;5022154;28;20557;-77
2022/01/05 07:51:45;;;;;;;3.08;2.05;;;2.50;99.90;;;;;;5021144;28;20649;-77
2022/01/05 07:54:12;;;;;;;2.83;2.03;;;2.50;99.90;;;;;;5018907;28;20954;-80
2022/01/05 07:56:40;;;;;;;5.03;2.05;;;2.50;99.90;;;;;;5020005;28;20273;-79
2022/01/05 07:59:07;;;;;;;3.10;2.47;;;2.60;99.90;;;;;;5020473;28;20367;-79
2022/01/05 08:01:34;;;;;;;2.60;2.00;;;2.60;99.90;;;;;;5017633;28;20294;-80
2022/01/05 08:04:01;;;;;;;2.03;1.92;;;2.60;99.90;;;;;;5018551;28;20288;-79
2022/01/05 08:06:29;;;;;;;2.25;2.15;;;2.60;99.90;;;;;;5023287;28;20221;-78
2022/01/05 08:08:56;;;;;;;3.45;2.38;;;2.60;99.90;;;;;;5019058;28;20195;-78
2022/01/05 08:11:23;;;;;;;3.65;2.28;;;2.50;99.90;;;;;;5012530;28;20202;-77
2022/01/05 08:13:52;;;;;;;3.90;2.20;;;2.50;99.90;;;;;;5018393;28;20203;-77
2022/01/05 08:16:19;;;;;;;5.38;2.35;;;2.50;99.90;;;;;;5019743;28;20218;-76
2022/01/05 08:18:49;;;;;;;3.83;2.17;;;2.40;99.90;;;;;;5021268;28;20697;-81
2022/01/05 08:21:17;;;;;;;5.28;2.40;;;2.40;99.90;;;;;;5028325;28;20198;-78
2022/01/05 08:23:45;;;;;;;2.78;2.47;;;2.40;99.90;;;;;;5030964;28;20198;-77
2022/01/05 08:26:12;;;;;;;3.25;2.65;;;2.50;99.90;;;;;;5031171;28;20313;-76
2022/01/05 08:28:39;;;;;;;6.93;2.95;;;2.50;99.90;;;;;;5029551;28;20225;-77
2022/01/05 08:31:06;;;;;;;4.53;2.60;;;2.50;99.90;;;;;;5031601;28;20648;-77
2022/01/05 08:33:34;;;;;;;3.60;2.92;;;2.60;99.90;;;;;;5034801;28;20207;-76
2022/01/05 08:36:02;;;;;;;6.65;3.15;;;2.60;99.90;;;;;;5045081;28;20214;-77
2022/01/05 08:38:29;;;;;;;6.25;2.65;;;2.60;99.90;;;;;;5038900;28;20225;-77
2022/01/05 08:40:58;;;;;;;6.47;4.03;;;2.60;99.90;;;;;;5043683;28;20194;-77
2022/01/05 08:43:24;;;;;;;5.90;3.47;;;2.70;99.90;;;;;;5037553;28;20198;-76
2022/01/05 08:45:55;;;;;;;4.80;3.50;;;2.70;99.90;;;;;;5036428;28;20217;-77
2022/01/05 08:48:22;;;;;;;3.20;2.90;;;2.70;99.90;;;;;;5053310;28;20332;-76
2022/01/05 08:50:51;;;;;;;4.57;3.00;;;2.70;99.90;;;;;;5056330;28;20205;-76
2022/01/05 08:53:18;;;;;;;8.05;3.53;;;2.70;99.90;;;;;;5055152;28;20272;-76
2022/01/05 08:55:48;;;;;;;3.75;3.35;;;2.70;99.90;;;;;;5054311;28;20247;-76
2022/01/05 08:58:17;;;;;;;4.15;3.53;;;2.80;99.90;;;;;;5041445;28;20206;-77
2022/01/05 09:00:44;;;;;;;5.15;3.30;;;2.80;99.90;;;;;;5033620;28;20549;-77
2022/01/05 09:03:14;;;;;;;2.90;2.70;;;2.80;99.90;;;;;;5023997;28;20205;-76
2022/01/05 09:05:42;;;;;;;4.13;2.00;;;2.80;99.90;;;;;;5015888;28;20247;-77
2022/01/05 09:08:09;;;;;;;2.63;1.95;;;3.30;99.90;;;;;;5017146;28;20200;-77
2022/01/05 09:10:36;;;;;;;4.05;1.80;;;3.90;99.90;;;;;;5031022;28;20223;-77
2022/01/05 09:13:03;;;;;;;4.75;1.83;;;4.60;99.90;;;;;;4999407;28;20550;-77
2022/01/05 09:15:33;;;;;;;2.67;2.08;;;5.20;99.90;;;;;;5015178;28;20226;-77
2022/01/05 09:18:01;;;;;;;4.75;2.50;;;5.30;99.90;;;;;;5024918;28;20552;-76
2022/01/05 09:20:28;;;;;;;4.22;1.83;;;5.30;99.90;;;;;;5033193;28;20313;-77
2022/01/05 09:22:55;;;;;;;2.90;1.75;;;5.00;99.90;;;;;;5034813;28;20222;-77
2022/01/05 09:25:23;;;;;;;3.25;2.00;;;4.70;99.90;;;;;;5034107;28;20217;-77
2022/01/05 09:27:51;;;;;;;4.13;2.00;;;4.30;99.90;;;;;;5034591;28;20585;-76
2022/01/05 09:30:20;;;;;;;4.68;2.00;;;3.90;99.90;;;;;;5032769;28;20204;-76
2022/01/05 09:32:49;;;;;;;4.10;1.80;;;4.20;99.90;;;;;;5033346;28;20203;-76
2022/01/05 09:35:19;;;;;;;4.85;1.95;;;4.30;99.90;;;;;;5034107;28;20216;-76
2022/01/05 09:37:55;;;;;;;2.95;1.80;;;4.00;99.90;;;;;;5034465;28;20227;-76
2022/01/05 09:43:09;;;;;;;4.97;1.80;;;3.60;99.90;;;;;;5033513;28;20280;-76
2022/01/05 09:45:38;;;;;;;6.10;2.00;;;3.40;99.90;;;;;;5034012;28;20215;-77
2022/01/05 09:48:28;;;;;;;2.75;1.80;;;3.30;99.90;;;;;;5032942;28;20216;-76
2022/01/05 09:50:59;;;;;;;5.80;2.15;;;3.10;99.90;;;;;;5034026;28;20198;-77
2022/01/05 09:53:27;;;;;;;3.67;2.10;;;2.90;99.90;;;;;;5033478;28;20545;-77
2022/01/05 09:55:55;;;;;;;7.93;2.08;;;2.90;99.90;;;;;;5034045;28;20217;-76
2022/01/05 09:58:23;;;;;;;4.63;2.58;;;2.90;99.90;;;;;;5033948;28;20203;-76
2022/01/05 10:00:52;;;;;;;2.97;1.80;;;2.80;99.90;;;;;;5014259;28;20195;-77
2022/01/05 10:03:19;;;;;;;3.72;2.25;;;2.80;99.90;;;;;;5026163;28;20218;-76
2022/01/05 10:05:47;;;;;;;4.30;2.58;;;2.80;99.90;;;;;;5033539;28;20225;-76
2022/01/05 10:08:14;;;;;;;3.25;1.95;;;2.60;99.90;;;;;;5032983;28;20728;-76
2022/01/05 10:10:42;;;;;;;5.47;2.25;;;2.60;99.90;;;;;;5033229;28;20583;-76
2022/01/05 10:13:10;;;;;;;4.28;1.90;;;2.90;99.90;;;;;;5033808;28;20341;-76
2022/01/05 10:15:38;;;;;;;4.13;1.98;;;3.90;99.90;;;;;;5033139;28;20211;-76
2022/01/05 10:18:13;;;;;;;6.18;2.22;;;4.70;99.90;;;;;;5031502;28;20303;-76
2022/01/05 10:20:56;;;;;;;3.80;1.90;;;5.40;99.90;;;;;;5014737;28;20244;-76
2022/01/05 10:23:34;;;;;;;5.80;2.90;;;6.00;99.90;;;;;;5033607;28;20210;-76
2022/01/05 10:26:27;;;;;;;3.15;1.83;;;6.60;99.90;;;;;;5033337;28;20222;-76
2022/01/05 10:28:56;;;;;;;4.55;2.40;;;6.70;99.90;;;;;;5031392;28;20221;-77
2022/01/05 10:31:25;;;;;;;4.72;2.58;;;6.60;99.90;;;;;;5020531;28;20281;-76
2022/01/05 10:33:53;;;;;;;4.30;2.00;;;6.80;99.90;;;;;;5032526;28;20240;-76
2022/01/05 10:36:21;;;;;;;5.35;1.80;;;7.10;99.90;;;;;;5033339;28;20213;-76
2022/01/05 10:38:54;;;;;;;5.25;2.58;;;7.20;99.90;;;;;;5030557;28;20556;-77
2022/01/05 10:41:23;;;;;;;4.05;1.98;;;6.70;99.90;;;;;;5013486;28;20622;-76
2022/01/05 10:44:10;;;;;;;8.32;1.90;;;6.00;99.90;;;;;;5021581;28;20317;-77
2022/01/05 10:46:39;;;;;;;6.65;2.30;;;5.50;99.90;;;;;;5032680;28;20209;-76
2022/01/05 10:49:07;;;;;;;4.25;2.10;;;5.20;99.90;;;;;;5031648;28;20292;-76
2022/01/05 10:51:37;;;;;;;6.03;2.50;;;4.60;99.90;;;;;;5033188;28;20201;-78
2022/01/05 10:54:14;;;;;;;8.23;2.20;;;4.30;99.90;;;;;;5030426;28;20228;-75
2022/01/05 10:56:41;;;;;;;4.40;2.15;;;4.10;99.90;;;;;;5032353;28;20268;-76
2022/01/05 10:59:08;;;;;;;4.97;2.85;;;4.00;99.90;;;;;;5015345;28;20224;-75
2022/01/05 11:01:36;;;;;;;4.15;1.90;;;3.90;99.90;;;;;;5032592;28;20210;-76
2022/01/05 11:04:16;;;;;;;4.15;2.03;;;4.00;99.90;;;;;;5030928;28;20202;-76
2022/01/05 11:06:59;;;;;;;6.40;2.10;;;4.20;99.90;;;;;;5031442;28;20291;-75
2022/01/05 11:09:27;;;;;;;5.57;2.17;;;4.30;99.90;;;;;;5032522;28;20189;-76
2022/01/05 11:11:54;;;;;;;6.32;2.83;;;4.40;99.90;;;;;;5032689;28;20291;-76
2022/01/05 11:14:29;;;;;;;5.93;2.35;;;4.20;99.90;;;;;;5032491;28;20230;-76
2022/01/05 11:16:57;;;;;;;5.45;2.35;;;4.10;99.90;;;;;;5029675;28;20207;-76
2022/01/05 11:19:27;;;;;;;3.42;1.90;;;4.00;99.90;;;;;;5031964;28;20316;-76
2022/01/05 11:22:07;;;;;;;5.93;2.33;;;3.90;99.90;;;;;;5031701;28;20222;-76
2022/01/05 11:24:37;;;;;;;3.60;1.85;;;4.00;99.90;;;;;;5032497;28;20532;-76
2022/01/05 11:27:05;;;;;;;3.45;1.73;;;4.50;99.90;;;;;;5019739;28;20680;-76
2022/01/05 11:29:33;;;;;;;3.78;1.90;;;4.40;99.90;;;;;;5011923;28;20301;-76
2022/01/05 11:32:01;;;;;;;4.88;1.92;;;4.30;99.90;;;;;;5020619;28;20200;-75
2022/01/05 11:34:31;;;;;;;6.60;2.38;;;4.30;99.90;;;;;;5031692;28;20274;-76
2022/01/05 11:37:01;;;;;;;8.07;1.98;;;4.20;99.90;;;;;;5021998;28;20208;-76
2022/01/05 11:39:30;;;;;;;2.65;1.63;;;4.00;99.90;;;;;;5012257;28;20257;-76
2022/01/05 11:41:59;;;;;;;3.22;1.90;;;3.60;99.90;;;;;;5014618;28;20200;-75
2022/01/05 11:44:29;;;;;;;4.45;2.13;;;4.00;99.90;;;;;;5012016;28;20221;-76
2022/01/05 11:46:57;;;;;;;5.75;2.50;;;4.30;99.90;;;;;;5030226;28;20244;-76
2022/01/05 11:49:28;;;;;;;4.20;2.50;;;4.60;99.90;;;;;;5031547;28;20203;-76
2022/01/05 11:51:58;;;;;;;4.70;2.28;;;4.60;99.90;;;;;;5013549;28;20225;-75
2022/01/05 11:54:28;;;;;;;6.97;2.50;;;4.50;99.90;;;;;;5031472;28;20250;-75
2022/01/05 11:56:58;;;;;;;7.88;2.97;;;4.50;99.90;;;;;;5021245;28;20200;-75
2022/01/05 11:59:33;;;;;;;5.53;2.40;;;4.50;99.90;;;;;;5026737;28;20286;-76
2022/01/05 12:02:07;;;;;;;5.30;2.33;;;4.50;99.90;;;;;;5031575;28;20749;-75
2022/01/05 12:04:59;;;;;;;6.90;2.55;;;4.30;99.90;;;;;;5031466;28;21041;-76
2022/01/05 12:07:40;;;;;;;4.47;2.65;;;4.20;99.90;;;;;;5029448;28;20662;-75
2022/01/05 12:10:12;;;;;;;7.18;3.50;;;3.90;99.90;;;;;;5031379;28;20294;-75
2022/01/05 12:12:58;;;;;;;4.10;2.20;;;3.90;99.90;;;;;;5031930;28;20195;-75
2022/01/05 12:15:44;;;;;;;5.18;2.40;;;3.80;99.90;;;;;;5012460;28;20255;-75
2022/01/05 12:18:13;;;;;;;5.03;2.10;;;3.70;99.90;;;;;;5015922;28;20211;-76
2022/01/05 12:20:41;;;;;;;4.10;2.15;;;3.80;99.90;;;;;;5029867;28;20327;-75
2022/01/05 12:23:15;;;;;;;4.03;2.10;;;4.30;99.90;;;;;;5034934;28;20238;-76
2022/01/05 12:26:14;;;;;;;6.13;2.97;;;4.10;99.90;;;;;;5035331;28;20220;-77
2022/01/05 12:28:49;;;;;;;5.00;1.88;;;4.20;99.90;;;;;;5025673;28;20719;-76
2022/01/05 12:31:17;;;;;;;5.10;2.20;;;4.10;99.90;;;;;;5035628;28;20204;-78
2022/01/05 12:33:45;;;;;;;5.97;2.05;;;4.10;99.90;;;;;;5034489;28;20664;-75
2022/01/05 12:36:15;;;;;;;2.65;1.80;;;4.30;99.90;;;;;;5034770;28;20542;-76
2022/01/05 12:38:54;;;;;;;5.60;1.83;;;4.40;99.90;;;;;;5034114;28;20235;-76
2022/01/05 12:41:34;;;;;;;6.43;2.28;;;4.50;99.90;;;;;;5035402;28;20231;-76
2022/01/05 12:44:06;;;;;;;5.93;2.13;;;4.80;99.90;;;;;;5015687;28;20233;-75
2022/01/05 12:46:35;;;;;;;3.72;2.00;;;4.80;99.90;;;;;;5015776;28;20621;-75
2022/01/05 12:49:05;;;;;;;4.53;1.83;;;4.70;99.90;;;;;;5021125;28;20191;-77
2022/01/05 12:51:43;;;;;;;3.20;2.00;;;4.60;99.90;;;;;;5034453;28;20288;-75
2022/01/05 12:54:13;;;;;;;4.30;1.95;;;4.60;99.90;;;;;;5034634;28;20229;-75
2022/01/05 12:56:44;;;;;;;6.50;2.00;;;4.50;99.90;;;;;;5026869;28;20201;-76
2022/01/05 12:59:14;;;;;;;6.30;2.00;;;4.70;99.90;;;;;;5023545;28;20292;-75
2022/01/05 13:01:43;;;;;;;3.58;1.58;;;5.20;99.90;;;;;;5034654;28;20224;-75
2022/01/05 13:04:14;;;;;;;4.00;2.20;;;5.70;99.90;;;;;;5036433;28;20201;-75
2022/01/05 13:06:43;;;;;;;5.22;2.15;;;6.40;99.90;;;;;;5033815;28;20608;-75
2022/01/05 13:09:12;;;;;;;4.57;1.85;;;6.70;99.90;;;;;;5034569;28;20564;-75